Observations for CARDIFF-WALES ARPT, United Kingdom (EGFF)

EGFF 201650Z AUTO 27011KT 9999 BKN008 BKN019 OVC027 16/14 Q1020 
EGFF 201620Z AUTO 26012KT 9999 BKN008 OVC015 16/14 Q1020
EGFF 201550Z AUTO 26011KT 9999 BKN009 OVC012 16/14 Q1020
EGFF 201520Z AUTO 26010KT 9999 BKN008 BKN012 OVC024 17/15 Q1020 
EGFF 201450Z 27010KT 9999 BKN006 BKN015 16/15 Q1021 
EGFF 201420Z 28010KT 9000 BKN006 BKN014 15/15 Q1021 
EGFF 201350Z 27012KT 3800 BR SCT003 BKN005 BKN008 16/15 Q1021   
EGFF 201320Z 27012KT 4800 BR BKN003 BKN009 15/15 Q1021  
EGFF 201250Z 27014KT 6000 -RA BKN002 15/15 Q1021
EGFF 201220Z 27014KT 3600 -DZ BR BKN003 OVC006 16/16 Q1021  
EGFF 201150Z 27015KT 6000 VCSH BKN006 16/16 Q1021   
EGFF 201120Z 27012KT 9999 BKN005 BKN014 17/16 Q1021 
EGFF 201050Z 27016KT 8000 -RA FEW003 BKN005 BKN022 17/16 Q1021  
EGFF 201020Z 27014KT 5000 -RA BKN003 OVC009 17/16 Q1021 
EGFF 200950Z AUTO 27011KT 9999 BKN012 OVC017 17/15 Q1020
EGFF 200920Z AUTO 26011KT 9999 BKN012 OVC019 18/16 Q1020
EGFF 200850Z AUTO 26011KT 9999 BKN012 OVC022 17/15 Q1020
EGFF 200820Z AUTO 27011KT 240V300 9999 BKN006 OVC022 17/16 Q1020
EGFF 200750Z AUTO 27010KT 5000 -DZ OVC006 16/15 Q1020   
EGFF 200720Z AUTO 24007KT 9999 OVC014 17/15 Q1020   
EGFF 200650Z AUTO 22007KT 9999 OVC016 17/15 Q1020   
EGFF 200620Z AUTO 22008KT 9999 OVC026 17/15 Q1020   
EGFF 200550Z AUTO 21006KT 6000 OVC028 16/15 Q1020   
EGFF 200520Z AUTO 19005KT 9999 OVC030 16/15 Q1020   
EGFF 200450Z AUTO 23004KT 9999 SCT024 OVC028 15/15 Q1020
EGFF 200420Z AUTO 25005KT 9999 SCT003 BKN011 OVC020 15/15 Q1020 
EGFF 200350Z AUTO 28007KT 250V310 9999 BKN003 OVC009 15/14 Q1021
EGFF 200320Z AUTO 29008KT 9999 OVC003 15/14 Q1021   
EGFF 200250Z AUTO 30009KT 9999 SCT004 OVC009 15/14 Q1021
EGFF 200220Z AUTO 29006KT 9999 OVC012 16/14 Q1021   
EGFF 200150Z AUTO 28006KT 9999 OVC014 16/14 Q1021   
EGFF 200120Z AUTO 29006KT 9999 OVC015 16/14 Q1021   
EGFF 200050Z AUTO 28007KT 9999 OVC017 16/15 Q1021   
EGFF 200020Z AUTO 27008KT 9999 OVC019 16/15 Q1022   
EGFF 192350Z AUTO 27007KT 9999 OVC020 16/15 Q1022   
EGFF 192320Z AUTO 27007KT 9999 OVC020 16/15 Q1022   
EGFF 192250Z AUTO 25006KT 9999 OVC022 16/15 Q1022   
EGFF 192220Z AUTO 25005KT 220V280 9999 BKN025 OVC030 16/15 Q1022
EGFF 192150Z AUTO 26008KT 9999 OVC029 17/15 Q1022   
EGFF 192120Z AUTO 27009KT 9999 OVC031 17/15 Q1022   
EGFF 192050Z AUTO 27011KT 9999 OVC032 17/15 Q1022   
EGFF 192020Z AUTO 28009KT 9999 BKN017 OVC034 17/15 Q1022
EGFF 191950Z AUTO 28010KT 9999 BKN015 OVC036 17/15 Q1022
EGFF 191920Z AUTO 26010KT 9999 SCT014 OVC036 17/15 Q1022
EGFF 191850Z AUTO 27011KT 9999 SCT015 OVC037 18/15 Q1023
EGFF 191820Z AUTO 27010KT 9999 OVC014 18/15 Q1023   
EGFF 191750Z AUTO 27013KT 9999 OVC014 18/15 Q1023   
EGFF 191720Z AUTO 27012KT 9999 FEW013 OVC027 18/16 Q1023
EGFF 191650Z AUTO 28014KT 9999 BKN026 OVC034 18/16 Q1023
EGFF 191620Z AUTO 28014KT 9999 BKN028 OVC039 18/16 Q1023